Startpagina
METAR-TAF:

METAR-TAF

Vliegvelden :

Norman Manley International Airport

Kingston, Jamaica

breedte: 17-56N, lengte: 076-47W, hoogte: 3 m

Actueel weer

Dit bericht is 1 uur en het 1 minuten geleden gemaakt, om 09:00 UTC
Wind 8 kt uit het noordnoordwesten
Temperatuur 27°C
Vochtigheid 79%
Druk 1010 hPa
Zicht 10 km of meer
Weinig wolken op 2200 ft

METAR: MKJP 230900Z 33008KT 9999 FEW022 27/23 Q1010

Tijdstip: 05:01 (10:01 UTC)

Verwachting

Dit bericht is 4 uur en het 46 minuten geleden gemaakt, om 05:15 UTC
Verwachting geldig van 23 om 06 UTC tot 24 om 06 UTC
Wind 5 kt uit het noorden
Zicht 10 km of meer
Weinig wolken op 2200 ft
Wijzigt naar
van 23 om 13 UTC tot 23 om 15 UTC
Wind 20 kt uit het zuidzuidoosten
Weinig wolken op 2200 ft, Cumulonimbus.
Wijzigt naar
van 24 om 01 UTC tot 24 om 03 UTC
Wind 5 kt uit het noorden
Weinig wolken op 2200 ft

TAF: MKJP 230515Z 2306/2406 35005KT 9999 FEW022 BECMG 2313/2315 15020KT FEW022CB BECMG 2401/2403 36005KT FEW022

Waarnemingen en weersverwachtingen van meer dan 4000 vliegvelden (METAR en TAF).

De beschikbare stations zijn de gele en rode punten op de kaart.

Ga met uw muis naar het station om de naam te zien.

Klik dan om waarnemingen en weersverwachtingen te zien.

kaart wijzigen: klik op de groene knoppen met een zwart kruis om in te zoomen, op de groene knop met een streepje om uit te zoomen of op de groene pijlen voor aangrenzende kaarten.


METAR-TAF: